Time;durP1;ratioP1;P1;durP2;ratioP2;P2;SDS_P1;SDS_P2;PMS_P1;PMS_P2;Temp;Humidity;BMP_temperature;BMP_pressure;BME280_temperature;BME280_humidity;BME280_pressure;Samples;Min_cycle;Max_cycle;Signal;HPM_P1;HPM_P2
2022/11/05 00:18:12;;;;;;;20.60;6.80;;;;;;;4.71;100.00;101325.50;12779305;23;20107;-80
2022/11/05 00:28:34;;;;;;;21.02;6.93;;;;;;;4.61;100.00;101325.88;12771249;23;20021;-80
2022/11/05 00:33:35;;;;;;;19.85;6.78;;;;;;;4.60;100.00;101340.59;12740476;23;20013;-81
2022/11/05 00:38:36;;;;;;;15.70;6.15;;;;;;;4.16;100.00;101293.63;12798827;23;20045;-80
2022/11/05 00:54:26;;;;;;;24.60;7.97;;;;;;;4.11;100.00;101323.34;12706249;23;20182;-81
2022/11/05 00:59:27;;;;;;;26.63;7.70;;;;;;;4.19;100.00;101355.88;12719272;23;20024;-81
2022/11/05 01:04:28;;;;;;;20.38;6.63;;;;;;;4.14;100.00;101336.56;12702733;23;20024;-80
2022/11/05 01:09:29;;;;;;;21.45;6.60;;;;;;;3.95;100.00;101320.94;12740832;23;20021;-80
2022/11/05 01:14:30;;;;;;;15.85;5.72;;;;;;;3.76;100.00;101308.84;12696686;23;20013;-81
2022/11/05 01:19:31;;;;;;;21.00;6.57;;;;;;;3.97;100.00;101346.09;12696486;23;20009;-81
2022/11/05 01:24:32;;;;;;;13.00;5.70;;;;;;;3.92;100.00;101354.03;12739672;23;20072;-82
2022/11/05 01:29:32;;;;;;;12.70;5.82;;;;;;;3.91;100.00;101353.19;12630799;23;20066;-80
2022/11/05 01:34:33;;;;;;;14.70;5.93;;;;;;;3.89;100.00;101349.00;12681512;23;20087;-81
2022/11/05 01:39:33;;;;;;;18.10;5.93;;;;;;;3.81;100.00;101345.38;12723633;23;20060;-80
2022/11/05 01:45:11;;;;;;;19.45;5.57;;;;;;;3.88;100.00;101358.19;12687943;23;20153;-80
2022/11/05 01:50:24;;;;;;;16.58;5.57;;;;;;;3.70;100.00;101339.59;12749710;23;20025;-81
2022/11/05 01:55:26;;;;;;;14.80;6.03;;;;;;;3.47;100.00;101310.72;12757031;23;20073;-81
2022/11/05 02:00:26;;;;;;;14.45;5.13;;;;;;;3.58;100.00;101325.72;12700026;23;20020;-81
2022/11/05 02:05:27;;;;;;;15.98;5.18;;;;;;;3.83;100.00;101356.06;12720063;23;20009;-81
2022/11/05 02:10:27;;;;;;;16.23;5.35;;;;;;;3.75;100.00;101359.78;12735424;23;20013;-80
2022/11/05 02:15:38;;;;;;;13.20;5.57;;;;;;;3.42;100.00;101299.59;12719699;23;20013;-81
2022/11/05 02:21:05;;;;;;;15.40;4.70;;;;;;;3.69;100.00;101349.66;12709060;23;20086;-81
2022/11/05 02:26:33;;;;;;;16.02;5.28;;;;;;;3.78;100.00;101355.81;12771008;23;20044;-80
2022/11/05 02:31:53;;;;;;;8.27;4.40;;;;;;;3.93;100.00;101372.06;12697752;23;20017;-80
2022/11/05 02:37:31;;;;;;;12.45;4.85;;;;;;;3.99;100.00;101365.81;12767026;23;20021;-81
2022/11/05 02:42:41;;;;;;;10.32;4.80;;;;;;;3.95;100.00;101361.78;12741371;23;20072;-80
2022/11/05 02:47:55;;;;;;;13.60;4.10;;;;;;;3.44;100.00;101275.75;12696755;23;20021;-81
2022/11/05 02:53:03;;;;;;;14.93;4.32;;;;;;;3.66;100.00;101314.69;12679718;23;20084;-81
2022/11/05 02:58:04;;;;;;;13.50;4.82;;;;;;;3.87;100.00;101340.19;12797183;23;20024;-81
2022/11/05 03:03:10;;;;;;;11.20;4.40;;;;;;;3.94;100.00;101351.94;12777077;23;20012;-81
2022/11/05 03:08:21;;;;;;;11.80;4.68;;;;;;;3.89;100.00;101338.09;12744674;23;20027;-81
2022/11/05 03:13:25;;;;;;;12.07;4.80;;;;;;;3.93;100.00;101353.84;12754048;23;20009;-79
2022/11/05 03:18:38;;;;;;;10.57;4.03;;;;;;;3.96;100.00;101360.75;12812190;23;20044;-80
2022/11/05 03:23:44;;;;;;;16.27;5.50;;;;;;;4.02;100.00;101354.53;12748765;23;20019;-80
2022/11/05 03:28:46;;;;;;;10.53;4.43;;;;;;;3.98;100.00;101347.78;12849495;23;20473;-81
2022/11/05 03:33:47;;;;;;;17.23;4.82;;;;;;;3.89;100.00;101335.38;12775512;23;20300;-81
2022/11/05 03:38:48;;;;;;;10.07;4.32;;;;;;;3.94;100.00;101352.78;12797909;23;20035;-82
2022/11/05 03:43:50;;;;;;;15.50;4.32;;;;;;;3.84;100.00;101366.78;12795335;23;20378;-81
2022/11/05 03:48:54;;;;;;;13.38;4.68;;;;;;;3.77;100.00;101373.19;12803512;23;20020;-81
2022/11/05 03:53:56;;;;;;;13.48;5.30;;;;;;;3.69;100.00;101368.72;12733222;23;20021;-80
2022/11/05 03:58:57;;;;;;;11.57;5.25;;;;;;;3.50;100.00;101348.47;12700375;23;20028;-80
2022/11/05 04:03:58;;;;;;;16.83;6.15;;;;;;;3.38;100.00;101331.81;12710198;23;20020;-81
2022/11/05 04:14:17;;;;;;;12.98;5.80;;;;;;;3.53;100.00;101371.72;12678806;23;20048;-80
2022/11/05 04:24:07;;;;;;;18.65;6.93;;;;;;;3.51;100.00;101384.69;12685582;23;20017;-81
2022/11/05 04:24:39;;;;;;;20.58;6.70;;;;;;;2.39;100.00;101215.56;12740533;23;20010;-81
2022/11/05 04:34:58;;;;;;;16.38;6.10;;;;;;;3.53;100.00;101367.13;12740413;23;20017;-81
2022/11/05 04:39:59;;;;;;;11.50;6.82;;;;;;;3.79;100.00;101387.47;12684875;23;20009;-82
2022/11/05 04:44:59;;;;;;;17.35;6.55;;;;;;;3.77;100.00;101398.53;12713083;23;20017;-80
2022/11/05 04:50:00;;;;;;;13.63;6.80;;;;;;;3.72;100.00;101381.97;12702569;23;20013;-81
2022/11/05 04:55:01;;;;;;;17.83;7.25;;;;;;;3.63;100.00;101372.22;12710316;23;20021;-81
2022/11/05 05:00:01;;;;;;;12.10;6.47;;;;;;;3.84;100.00;101394.00;12695862;23;20319;-81
2022/11/05 05:05:02;;;;;;;18.27;7.10;;;;;;;3.86;100.00;101392.97;12763792;23;20028;-82
2022/11/05 05:10:03;;;;;;;17.40;8.05;;;;;;;3.87;100.00;101411.00;12709636;23;20009;-81
2022/11/05 05:15:04;;;;;;;16.60;7.50;;;;;;;3.88;100.00;101401.78;12737449;23;20008;-82
2022/11/05 05:25:24;;;;;;;23.40;10.40;;;;;;;4.00;100.00;101386.56;12747172;23;20016;-81
2022/11/05 05:30:24;;;;;;;17.63;7.95;;;;;;;4.07;100.00;101405.69;12724899;23;20013;-81
2022/11/05 05:35:25;;;;;;;16.67;8.48;;;;;;;4.11;100.00;101407.81;12714744;23;20548;-81
2022/11/05 05:40:26;;;;;;;19.60;9.18;;;;;;;4.18;100.00;101422.34;12715951;23;20013;-82
2022/11/05 05:45:27;;;;;;;19.63;9.38;;;;;;;4.23;100.00;101433.47;12742989;23;20044;-81
2022/11/05 05:50:27;;;;;;;17.00;8.65;;;;;;;4.22;100.00;101436.41;12711422;23;20081;-82
2022/11/05 05:55:28;;;;;;;14.27;8.68;;;;;;;3.69;100.00;101359.72;12768196;23;20297;-82
2022/11/05 06:00:28;;;;;;;19.02;10.45;;;;;;;4.13;100.00;101427.53;12767672;23;20111;-81
2022/11/05 06:05:29;;;;;;;16.33;8.65;;;;;;;4.08;100.00;101430.03;12694465;23;20029;-82
2022/11/05 06:10:29;;;;;;;21.75;9.32;;;;;;;4.03;100.00;101440.66;12710015;23;20025;-81
2022/11/05 06:15:30;;;;;;;19.77;9.57;;;;;;;4.01;100.00;101429.09;12675421;23;20025;-80
2022/11/05 06:20:30;;;;;;;21.30;9.13;;;;;;;4.00;100.00;101435.63;12703706;23;20052;-79
2022/11/05 06:25:31;;;;;;;17.25;8.98;;;;;;;3.97;100.00;101433.25;12717983;23;20017;-81
2022/11/05 06:30:32;;;;;;;15.38;9.07;;;;;;;3.96;100.00;101445.22;12705531;23;20016;-81
2022/11/05 06:35:32;;;;;;;26.73;10.25;;;;;;;3.96;100.00;101437.03;12735360;23;20048;-82
2022/11/05 06:40:34;;;;;;;22.45;9.32;;;;;;;3.64;100.00;101373.94;12774440;23;20009;-80
2022/11/05 06:45:35;;;;;;;17.85;8.65;;;;;;;4.01;100.00;101442.72;12703149;23;20486;-79
2022/11/05 06:50:37;;;;;;;23.50;9.43;;;;;;;3.77;100.00;101423.06;12683153;23;20013;-81
2022/11/05 06:55:37;;;;;;;21.13;9.80;;;;;;;3.85;100.00;101438.44;12668690;23;20017;-81
2022/11/05 07:00:38;;;;;;;16.38;9.05;;;;;;;3.98;100.00;101454.03;12733658;23;20253;-82
2022/11/05 07:05:41;;;;;;;18.25;8.85;;;;;;;4.02;100.00;101450.72;12725724;23;20020;-81
2022/11/05 07:10:42;;;;;;;19.33;8.82;;;;;;;3.80;100.00;101400.88;12768289;23;20020;-81
2022/11/05 07:15:43;;;;;;;20.13;8.88;;;;;;;4.35;100.00;101457.47;12725517;23;20429;-83
2022/11/05 07:20:43;;;;;;;18.02;9.48;;;;;;;4.61;100.00;101473.16;12716653;23;20013;-82
2022/11/05 07:25:44;;;;;;;17.88;9.45;;;;;;;4.68;100.00;101473.22;12741288;23;20017;-81
2022/11/05 07:30:47;;;;;;;19.63;11.02;;;;;;;4.72;100.00;101469.03;12739202;23;20036;-82
2022/11/05 07:35:47;;;;;;;22.30;10.57;;;;;;;4.62;100.00;101453.88;12757724;23;20028;-82
2022/11/05 07:40:48;;;;;;;19.38;9.90;;;;;;;4.71;100.00;101470.06;12749457;23;20009;-83
2022/11/05 07:45:48;;;;;;;17.33;10.07;;;;;;;4.81;100.00;101473.28;12747534;23;20023;-83
2022/11/05 07:50:50;;;;;;;14.25;9.55;;;;;;;4.79;100.00;101486.28;12778575;23;20009;-82
2022/11/05 07:55:51;;;;;;;13.95;9.00;;;;;;;4.84;100.00;101484.63;12738678;23;20025;-82
2022/11/05 08:00:51;;;;;;;15.27;8.98;;;;;;;4.99;100.00;101487.22;12790845;23;20024;-82
2022/11/05 08:05:55;;;;;;;12.77;8.88;;;;;;;4.76;100.00;101443.06;12808742;23;20031;-85
2022/11/05 08:11:04;;;;;;;18.88;8.57;;;;;;;5.12;100.00;101485.59;12720512;23;20020;-83
2022/11/05 08:16:05;;;;;;;16.48;8.65;;;;;;;5.27;100.00;101499.94;12743956;23;20020;-81
2022/11/05 08:21:06;;;;;;;16.65;7.90;;;;;;;5.38;100.00;101496.63;12732929;23;20183;-82
2022/11/05 08:26:06;;;;;;;16.67;8.05;;;;;;;5.42;100.00;101487.00;12768177;23;20071;-83
2022/11/05 08:31:07;;;;;;;18.83;8.90;;;;;;;5.60;100.00;101497.34;12795416;23;20017;-82
2022/11/05 08:36:07;;;;;;;16.48;7.32;;;;;;;5.53;100.00;101465.59;12771276;23;20024;-81
2022/11/05 08:41:08;;;;;;;15.52;7.68;;;;;;;5.70;100.00;101477.81;12734666;23;20029;-82
2022/11/05 08:46:08;;;;;;;11.38;7.30;;;;;;;5.96;100.00;101503.53;12757762;23;20017;-82
2022/11/05 08:51:09;;;;;;;17.50;6.32;;;;;;;6.16;100.00;101509.00;12798600;23;20013;-82
2022/11/05 08:56:09;;;;;;;12.13;6.75;;;;;;;6.13;100.00;101474.72;12756549;23;20029;-81
2022/11/05 09:01:10;;;;;;;12.07;6.63;;;;;;;6.49;100.00;101506.28;12770409;23;20021;-82
2022/11/05 09:06:10;;;;;;;9.65;6.47;;;;;;;6.23;100.00;101436.88;12731997;23;20016;-82
2022/11/05 09:11:11;;;;;;;11.63;6.05;;;;;;;6.88;100.00;101496.31;12768097;23;20013;-83
2022/11/05 09:16:18;;;;;;;7.60;4.80;;;;;;;6.67;100.00;101429.84;12768296;23;20025;-82
2022/11/05 09:21:18;;;;;;;9.23;5.15;;;;;;;7.13;100.00;101487.38;12759131;23;20017;-83
2022/11/05 09:26:19;;;;;;;8.18;4.55;;;;;;;7.28;100.00;101471.53;12761881;23;20096;-82
2022/11/05 09:31:20;;;;;;;7.82;4.75;;;;;;;7.30;100.00;101483.13;12776360;23;20015;-82
2022/11/05 09:36:20;;;;;;;8.18;4.32;;;;;;;7.73;100.00;101496.16;12761437;23;20013;-82
2022/11/05 09:41:36;;;;;;;8.95;4.82;;;;;;;7.88;100.00;101485.72;12742198;23;20013;-80
2022/11/05 09:46:49;;;;;;;10.55;4.10;;;;;;;7.88;100.00;101468.44;12715537;23;20013;-81
2022/11/05 09:51:53;;;;;;;7.10;4.10;;;;;;;8.09;100.00;101456.25;12767264;23;20068;-81
2022/11/05 09:56:54;;;;;;;11.38;3.72;;;;;;;8.53;100.00;101498.31;12745920;23;20028;-81
2022/11/05 10:02:03;;;;;;;5.57;3.42;;;;;;;8.67;100.00;101477.91;12761371;23;20017;-82
2022/11/05 10:07:04;;;;;;;16.00;4.65;;;;;;;8.91;100.00;101469.00;12758082;23;20397;-82
2022/11/05 10:12:15;;;;;;;8.75;3.20;;;;;;;9.19;100.00;101490.44;12733843;23;20017;-83
2022/11/05 10:17:24;;;;;;;5.80;2.85;;;;;;;8.95;100.00;101427.13;12715180;23;20028;-82
2022/11/05 10:22:25;;;;;;;5.63;2.75;;;;;;;9.19;100.00;101436.31;12742469;23;20038;-80
2022/11/05 10:27:31;;;;;;;9.15;5.10;;;;;;;9.79;100.00;101471.22;12745474;23;20354;-81
2022/11/05 10:32:37;;;;;;;7.60;2.72;;;;;;;9.65;100.00;101418.34;12737289;23;20024;-82
2022/11/05 10:37:39;;;;;;;6.75;2.60;;;;;;;10.06;100.00;101437.78;12782048;23;20009;-82
2022/11/05 10:42:57;;;;;;;4.90;2.40;;;;;;;10.66;100.00;101492.66;12765201;23;20013;-81
2022/11/05 10:48:28;;;;;;;6.43;2.42;;;;;;;10.85;100.00;101487.00;12798166;23;20025;-82
2022/11/05 10:53:30;;;;;;;10.93;2.38;;;;;;;10.93;100.00;101478.38;12799775;23;20025;-82
2022/11/05 10:58:31;;;;;;;4.00;1.80;;;;;;;11.13;100.00;101485.44;12722152;23;20019;-82
2022/11/05 11:03:45;;;;;;;4.35;1.95;;;;;;;11.24;100.00;101485.38;12722318;23;20020;-82
2022/11/05 11:08:46;;;;;;;6.53;2.00;;;;;;;11.47;100.00;101467.94;12771489;23;20088;-83
2022/11/05 11:13:58;;;;;;;8.93;1.83;;;;;;;11.93;100.00;101489.22;12766333;23;20041;-84
2022/11/05 11:19:00;;;;;;;5.25;1.40;;;;;;;11.83;100.00;101465.03;12748157;23;20048;-83
2022/11/05 11:24:02;;;;;;;6.88;1.70;;;;;;;12.25;100.00;101484.81;12771513;23;20022;-82
2022/11/05 11:29:39;;;;;;;5.18;1.65;;;;;;;11.77;100.00;101395.13;12745535;23;20080;-83
2022/11/05 11:34:40;;;;;;;6.50;2.08;;;;;;;12.13;100.00;101423.31;12748597;23;20017;-83
2022/11/05 11:39:42;;;;;;;3.60;1.50;;;;;;;12.43;100.00;101474.63;12724279;23;20353;-83
2022/11/05 11:44:43;;;;;;;5.05;1.58;;;;;;;12.22;100.00;101474.28;12724117;23;20033;-82
2022/11/05 11:49:54;;;;;;;5.72;1.67;;;;;;;12.19;100.00;101477.53;12743365;23;20032;-83
2022/11/05 11:55:17;;;;;;;5.28;2.00;;;;;;;12.32;100.00;101460.66;12770172;23;20183;-83
2022/11/05 12:00:19;;;;;;;6.88;1.90;;;;;;;12.69;100.00;101479.44;12748414;23;20041;-83
2022/11/05 12:05:38;;;;;;;6.63;1.88;;;;;;;12.77;100.00;101477.31;12772539;23;20025;-82
2022/11/05 12:10:52;;;;;;;4.55;2.05;;;;;;;12.75;100.00;101458.22;12748779;23;20088;-82
2022/11/05 12:16:00;;;;;;;6.03;1.88;;;;;;;12.85;100.00;101460.31;12699042;23;20021;-90
2022/11/05 12:21:20;;;;;;;2.92;2.03;;;;;;;13.13;100.00;101449.06;12773060;23;20017;-83
2022/11/05 12:26:47;;;;;;;4.25;1.88;;;;;;;12.96;100.00;101467.66;12725373;23;20037;-83
2022/11/05 12:32:07;;;;;;;6.68;1.50;;;;;;;12.84;100.00;101426.31;12799528;23;20312;-83
2022/11/05 12:37:30;;;;;;;4.78;1.13;;;;;;;12.87;100.00;101469.19;12749014;23;20014;-83
2022/11/05 12:43:00;;;;;;;3.80;1.30;;;;;;;12.60;100.00;101475.41;12773963;23;20114;-82
2022/11/05 12:48:32;;;;;;;2.90;1.20;;;;;;;12.42;100.00;101483.97;12798149;23;20029;-82
2022/11/05 12:53:32;;;;;;;10.57;2.20;;;;;;;12.14;100.00;101471.94;12799698;23;20073;-83
2022/11/05 12:58:41;;;;;;;3.97;1.40;;;;;;;11.74;100.00;101439.78;12770184;23;20017;-83
2022/11/05 13:03:44;;;;;;;5.57;1.65;;;;;;;11.79;100.00;101474.88;12722061;23;20009;-83
2022/11/05 13:09:00;;;;;;;12.15;2.35;;;;;;;11.54;100.00;101472.47;12772210;23;20013;-86
2022/11/05 13:14:14;;;;;;;2.42;0.90;;;;;;;11.43;100.00;101472.28;12747380;23;20021;-82
2022/11/05 13:19:19;;;;;;;3.58;1.05;;;;;;;11.35;100.00;101471.81;12768251;23;20020;-83
2022/11/05 13:24:23;;;;;;;6.50;1.25;;;;;;;11.13;100.00;101460.63;12744802;23;20017;-83
2022/11/05 13:29:31;;;;;;;4.45;1.25;;;;;;;11.08;100.00;101480.66;12721833;23;20040;-83
2022/11/05 13:34:32;;;;;;;3.97;1.55;;;;;;;10.92;100.00;101454.69;12738834;23;20021;-82
2022/11/05 13:39:44;;;;;;;2.50;1.33;;;;;;;10.88;100.00;101475.53;12717794;23;20017;-82
2022/11/05 13:44:58;;;;;;;3.30;1.20;;;;;;;9.52;100.00;101264.59;12717800;23;20009;-83
2022/11/05 13:50:11;;;;;;;4.40;1.30;;;;;;;10.81;100.00;101480.31;12727034;23;20017;-90
2022/11/05 13:55:23;;;;;;;4.53;2.53;;;;;;;10.78;100.00;101475.31;12745596;23;20021;-83
2022/11/05 14:00:25;;;;;;;9.27;3.50;;;;;;;10.75;100.00;101454.59;12794751;23;20017;-83
2022/11/05 14:05:36;;;;;;;11.95;3.03;;;;;;;10.55;100.00;101416.41;12722560;23;20009;-83
2022/11/05 14:10:39;;;;;;;10.05;3.33;;;;;;;10.93;100.00;101470.13;12722302;23;20084;-83
2022/11/05 14:15:40;;;;;;;7.25;2.58;;;;;;;10.87;100.00;101463.69;12697413;23;20048;-83
2022/11/05 14:21:00;;;;;;;7.80;2.90;;;;;;;10.44;100.00;101382.31;12728109;23;20013;-83
2022/11/05 14:26:20;;;;;;;7.38;3.10;;;;;;;10.57;100.00;101427.19;12728359;23;20063;-83
2022/11/05 14:31:23;;;;;;;10.10;4.28;;;;;;;10.52;100.00;101414.13;12778336;23;20351;-83
2022/11/05 14:36:23;;;;;;;7.63;3.90;;;;;;;10.63;100.00;101446.34;12753720;23;20020;-83
2022/11/05 14:41:24;;;;;;;4.90;3.38;;;;;;;10.53;100.00;101437.00;12802541;23;20044;-83
2022/11/05 14:46:24;;;;;;;8.35;3.90;;;;;;;10.56;100.00;101440.09;12751383;23;20013;-83
2022/11/05 14:51:25;;;;;;;12.45;3.88;;;;;;;10.57;100.00;101430.78;12752361;23;20013;-83
2022/11/05 14:56:26;;;;;;;8.68;4.40;;;;;;;10.38;100.00;101426.50;12757421;23;20020;-82
2022/11/05 15:01:54;;;;;;;11.10;4.80;;;;;;;10.30;100.00;101447.78;12782176;23;20079;-85
2022/11/05 15:07:03;;;;;;;8.98;4.28;;;;;;;10.27;100.00;101437.22;12803695;23;20039;-82
2022/11/05 15:12:08;;;;;;;11.77;4.88;;;;;;;10.15;100.00;101441.88;12802583;23;20013;-82
2022/11/05 15:17:47;;;;;;;10.45;4.47;;;;;;;9.96;100.00;101435.59;12803067;23;20032;-81
2022/11/05 15:22:58;;;;;;;9.88;4.90;;;;;;;9.96;100.00;101440.28;12798789;23;20017;-82
2022/11/05 15:28:09;;;;;;;7.65;4.30;;;;;;;9.80;100.00;101437.16;12750259;23;20089;-82
2022/11/05 15:33:17;;;;;;;6.93;4.32;;;;;;;9.78;100.00;101446.72;12750557;23;20048;-82
2022/11/05 15:38:34;;;;;;;12.15;4.25;;;;;;;9.66;100.00;101441.19;12775589;23;20375;-82
2022/11/05 15:43:35;;;;;;;8.95;4.28;;;;;;;9.65;100.00;101444.97;12775415;23;20088;-82
2022/11/05 15:48:35;;;;;;;10.40;4.72;;;;;;;9.58;100.00;101460.75;12725863;23;20009;-82
2022/11/05 15:53:54;;;;;;;10.25;4.65;;;;;;;9.43;100.00;101448.25;12774212;23;20025;-82
2022/11/05 15:59:00;;;;;;;10.98;5.15;;;;;;;9.40;100.00;101454.22;12746423;23;20363;-82
2022/11/05 16:04:02;;;;;;;;;;;;;;;9.44;100.00;101471.09;12747394;23;20021;-81
2022/11/05 16:09:03;;;;;;;9.40;4.47;;;;;;;9.31;100.00;101461.09;12759117;23;19924;-82
2022/11/05 16:14:17;;;;;;;11.95;5.72;;;;;;;9.31;100.00;101474.84;12772680;23;20017;-82
2022/11/05 16:19:35;;;;;;;11.05;5.43;;;;;;;8.84;100.00;101400.44;12719928;23;20021;-82
2022/11/05 16:24:35;;;;;;;12.15;4.60;;;;;;;9.10;100.00;101462.44;12744965;23;20355;-82
2022/11/05 16:29:37;;;;;;;11.90;4.95;;;;;;;9.01;100.00;101456.41;12742697;23;20015;-82
2022/11/05 16:34:40;;;;;;;16.48;5.38;;;;;;;8.89;100.00;101437.13;12721336;23;20024;-82
2022/11/05 16:39:41;;;;;;;8.70;4.78;;;;;;;8.90;100.00;101454.44;12719880;23;20039;-81
2022/11/05 16:44:41;;;;;;;8.98;4.63;;;;;;;8.78;100.00;101450.75;12745986;23;20063;-81
2022/11/05 16:49:42;;;;;;;10.10;4.78;;;;;;;8.69;100.00;101433.75;12716687;23;20020;-78
2022/11/05 16:54:42;;;;;;;12.45;6.00;;;;;;;8.59;100.00;101434.28;12730347;23;20025;-81
2022/11/05 16:59:42;;;;;;;7.45;5.05;;;;;;;8.58;100.00;101432.63;12692087;23;20025;-79
2022/11/05 17:04:43;;;;;;;10.98;5.32;;;;;;;8.38;100.00;101401.75;12770601;23;20017;-81
2022/11/05 17:09:43;;;;;;;11.85;6.07;;;;;;;8.62;100.00;101413.75;12769426;23;20021;-82
2022/11/05 17:14:44;;;;;;;12.60;6.07;;;;;;;8.69;100.00;101431.84;12716059;23;20383;-82
2022/11/05 17:19:45;;;;;;;13.75;6.97;;;;;;;8.65;100.00;101435.28;12745463;23;20441;-81
2022/11/05 17:24:46;;;;;;;10.73;6.78;;;;;;;8.61;100.00;101443.13;12744700;23;20040;-82
2022/11/05 17:29:46;;;;;;;13.30;7.95;;;;;;;8.43;100.00;101412.91;12755866;23;20025;-81
2022/11/05 17:34:47;;;;;;;11.88;7.47;;;;;;;8.57;100.00;101416.38;12721364;23;20493;-81
2022/11/05 17:39:47;;;;;;;13.52;7.63;;;;;;;8.57;100.00;101411.72;12705310;23;20514;-81
2022/11/05 17:44:47;;;;;;;11.48;7.50;;;;;;;8.53;100.00;101426.97;12742769;23;20031;-81
2022/11/05 17:49:48;;;;;;;14.23;7.78;;;;;;;8.54;100.00;101438.75;12713253;23;20021;-84
2022/11/05 17:54:49;;;;;;;13.52;6.55;;;;;;;8.50;100.00;101438.41;12721780;23;20074;-80
2022/11/05 17:59:49;;;;;;;17.58;7.32;;;;;;;8.32;100.00;101405.41;12729935;23;20367;-80
2022/11/05 18:04:50;;;;;;;14.73;8.15;;;;;;;8.20;100.00;101395.16;12741592;23;20017;-78
2022/11/05 18:09:50;;;;;;;16.33;7.55;;;;;;;8.17;100.00;101400.28;12707044;23;20006;-78
2022/11/05 18:14:51;;;;;;;15.82;7.63;;;;;;;8.31;100.00;101414.69;12743895;23;20044;-80
2022/11/05 18:19:51;;;;;;;11.48;7.30;;;;;;;8.51;100.00;101445.56;12743173;23;20017;-79
2022/11/05 18:24:53;;;;;;;16.27;10.18;;;;;;;8.55;100.00;101452.25;12706323;23;20021;-79
2022/11/05 18:29:54;;;;;;;13.32;7.68;;;;;;;8.57;100.00;101433.66;12743868;23;20013;-79
2022/11/05 18:34:54;;;;;;;13.98;8.48;;;;;;;8.52;100.00;101425.28;12719101;23;20017;-80
2022/11/05 18:39:55;;;;;;;19.55;8.77;;;;;;;8.42;100.00;101405.75;12742527;23;20020;-79
2022/11/05 18:44:55;;;;;;;15.07;8.60;;;;;;;8.46;100.00;101431.69;12742778;23;20021;-81
2022/11/05 18:49:56;;;;;;;13.02;7.93;;;;;;;8.34;100.00;101393.13;12767221;23;20039;-81
2022/11/05 18:54:57;;;;;;;10.68;7.60;;;;;;;8.58;100.00;101413.41;12767465;23;20021;-81
2022/11/05 18:59:57;;;;;;;12.25;8.35;;;;;;;8.46;100.00;101393.28;12745378;23;20043;-80
2022/11/05 19:04:58;;;;;;;13.18;7.85;;;;;;;8.51;100.00;101412.63;12721443;23;20017;-79
2022/11/05 19:10:00;;;;;;;17.67;8.43;;;;;;;8.63;100.00;101410.81;12773192;23;20013;-79
2022/11/05 19:15:01;;;;;;;14.63;7.43;;;;;;;8.70;100.00;101413.47;12797609;23;20020;-78
2022/11/05 19:20:02;;;;;;;17.50;8.05;;;;;;;8.68;100.00;101394.50;12742970;23;20017;-80
2022/11/05 19:25:03;;;;;;;14.35;7.38;;;;;;;8.73;100.00;101413.03;12719581;23;20009;-79
2022/11/05 19:30:04;;;;;;;13.52;7.25;;;;;;;8.57;100.00;101364.22;12697306;23;20752;-80
2022/11/05 19:35:05;;;;;;;10.85;6.72;;;;;;;8.75;100.00;101374.38;12698592;23;20013;-79
2022/11/05 19:40:06;;;;;;;14.38;7.47;;;;;;;8.73;100.00;101377.34;12748466;23;20043;-78
2022/11/05 19:45:07;;;;;;;16.73;7.68;;;;;;;8.86;100.00;101388.13;12723051;23;20021;-80
2022/11/05 19:50:08;;;;;;;12.18;6.75;;;;;;;8.92;100.00;101380.06;12746956;23;20005;-80
2022/11/05 19:55:08;;;;;;;13.55;7.53;;;;;;;8.91;100.00;101378.38;12764380;23;20021;-79
2022/11/05 20:00:09;;;;;;;12.95;6.43;;;;;;;8.88;100.00;101368.69;12797100;23;20028;-80
2022/11/05 20:05:11;;;;;;;11.30;6.10;;;;;;;8.97;100.00;101378.31;12772350;23;20039;-79
2022/11/05 20:10:11;;;;;;;15.55;6.95;;;;;;;8.77;100.00;101333.78;12797582;23;20066;-79
2022/11/05 20:15:12;;;;;;;12.90;6.60;;;;;;;8.87;100.00;101361.53;12748273;23;20025;-78
2022/11/05 20:20:12;;;;;;;10.70;6.85;;;;;;;8.71;100.00;101340.22;12797021;23;20017;-78
2022/11/05 20:25:13;;;;;;;10.07;6.03;;;;;;;8.82;100.00;101353.16;12795686;23;20028;-79
2022/11/05 20:30:13;;;;;;;11.90;5.95;;;;;;;8.86;100.00;101370.84;12797046;23;20020;-80
2022/11/05 20:35:14;;;;;;;8.98;6.03;;;;;;;8.95;100.00;101374.97;12772009;23;20021;-79
2022/11/05 20:40:15;;;;;;;12.13;6.05;;;;;;;8.96;100.00;101364.81;12773091;23;20017;-78
2022/11/05 20:45:15;;;;;;;11.27;6.28;;;;;;;8.84;100.00;101345.50;12772577;23;20016;-79
2022/11/05 20:50:16;;;;;;;10.90;6.20;;;;;;;9.00;100.00;101355.84;12772240;23;20539;-79
2022/11/05 20:55:16;;;;;;;9.10;5.25;;;;;;;8.71;100.00;101307.28;12770181;23;20027;-80
2022/11/05 21:00:17;;;;;;;15.57;6.07;;;;;;;9.03;100.00;101355.41;12684953;23;20017;-80
2022/11/05 21:05:18;;;;;;;9.27;5.57;;;;;;;8.72;100.00;101303.44;12721715;23;20040;-80
2022/11/05 21:10:18;;;;;;;13.15;5.93;;;;;;;9.02;100.00;101370.19;12698401;23;20486;-79
2022/11/05 21:15:21;;;;;;;8.63;5.30;;;;;;;8.82;100.00;101315.53;12719030;23;20021;-78
2022/11/05 21:20:22;;;;;;;9.52;6.07;;;;;;;8.85;100.00;101320.59;12769202;23;20531;-79
2022/11/05 21:25:22;;;;;;;12.73;6.72;;;;;;;9.03;100.00;101354.56;12717069;23;20040;-79
2022/11/05 21:30:23;;;;;;;10.85;5.95;;;;;;;8.96;100.00;101332.69;12742603;23;20039;-78
2022/11/05 21:35:23;;;;;;;10.68;6.07;;;;;;;9.05;100.00;101353.28;12719249;23;20418;-79
2022/11/05 21:40:24;;;;;;;14.82;5.88;;;;;;;9.03;100.00;101333.44;12744154;23;20065;-79
2022/11/05 21:45:24;;;;;;;12.02;5.25;;;;;;;9.00;100.00;101305.59;12745365;23;20033;-78
2022/11/05 22:01:03;;;;;;;9.77;5.18;;;;;;;9.10;100.00;101292.13;12771745;23;20024;-78
2022/11/05 22:06:04;;;;;;;8.13;5.43;;;;;;;9.27;100.00;101306.84;12714309;23;20061;-78
2022/11/05 22:11:04;;;;;;;9.75;4.80;;;;;;;9.19;100.00;101292.63;12759308;23;20024;-78
2022/11/05 22:16:05;;;;;;;11.40;5.15;;;;;;;9.31;100.00;101303.66;12736692;23;20025;-79
2022/11/05 22:21:06;;;;;;;11.93;5.22;;;;;;;9.34;100.00;101301.25;12738102;23;20013;-78
2022/11/05 22:26:06;;;;;;;10.63;4.35;;;;;;;9.28;100.00;101261.84;12761128;23;20013;-80
2022/11/05 22:31:13;;;;;;;12.82;4.25;;;;;;;9.41;100.00;101269.03;12714160;23;20028;-81
2022/11/05 22:36:13;;;;;;;9.32;4.55;;;;;;;9.43;100.00;101264.13;12714771;23;20037;-79
2022/11/05 22:41:16;;;;;;;8.15;4.30;;;;;;;9.44;100.00;101271.28;12742034;23;20363;-80
2022/11/05 22:46:19;;;;;;;11.85;5.00;;;;;;;9.44;100.00;101265.78;12740673;23;20074;-79
2022/11/05 22:51:21;;;;;;;8.85;4.53;;;;;;;9.44;100.00;101279.53;12742174;23;20440;-78
2022/11/05 22:56:24;;;;;;;9.48;4.13;;;;;;;8.87;100.00;101183.06;12703923;23;20017;-78
2022/11/05 23:01:25;;;;;;;8.55;4.30;;;;;;;9.27;100.00;101240.09;12717537;23;20020;-79
2022/11/05 23:11:49;;;;;;;8.30;4.95;;;;;;;9.35;100.00;101264.47;12768069;23;20036;-80
2022/11/05 23:27:42;;;;;;;8.60;5.00;;;;;;;9.24;100.00;101241.41;12752286;23;20020;-79
2022/11/05 23:32:42;;;;;;;11.15;4.97;;;;;;;8.98;100.00;101197.88;12698063;23;20073;-79
2022/11/05 23:48:32;;;;;;;7.57;5.00;;;;;;;9.26;100.00;101227.41;12752430;23;20021;-80
2022/11/05 23:53:35;;;;;;;12.55;6.28;;;;;;;9.11;100.00;101194.09;12697980;23;20025;-79
2022/11/05 23:58:36;;;;;;;7.13;4.63;;;;;;;9.19;100.00;101196.47;12722336;23;20017;-79
